Time;durP1;ratioP1;P1;durP2;ratioP2;P2;SDS_P1;SDS_P2;PMS_P1;PMS_P2;Temp;Humidity;BMP_temperature;BMP_pressure;BME280_temperature;BME280_humidity;BME280_pressure;Samples;Min_cycle;Max_cycle;Signal;HPM_P1;HPM_P2
2022/10/10 00:00:47;;;;;;;6.20;2.50;;;;;;;16.58;71.51;101418.19;5050009;28;20032;-46
2022/10/10 00:03:13;;;;;;;3.92;2.03;;;;;;;16.71;71.91;101413.66;5051423;28;20087;-46
2022/10/10 00:05:40;;;;;;;4.60;2.40;;;;;;;16.63;71.87;101422.91;5032247;28;20120;-47
2022/10/10 00:08:07;;;;;;;3.83;1.98;;;;;;;16.43;73.27;101415.09;5031529;28;20478;-45
2022/10/10 00:10:33;;;;;;;4.43;2.53;;;;;;;16.53;72.75;101411.81;5031427;28;20029;-46
2022/10/10 00:13:00;;;;;;;4.78;2.38;;;;;;;16.25;74.17;101412.44;5032208;28;20041;-44
2022/10/10 00:15:27;;;;;;;4.88;2.10;;;;;;;16.19;73.91;101416.06;5031339;28;20021;-46
2022/10/10 00:17:53;;;;;;;4.47;2.47;;;;;;;16.16;74.32;101406.56;5031057;28;20035;-45
2022/10/10 00:20:20;;;;;;;3.30;2.47;;;;;;;15.98;75.24;101410.09;5041956;28;20495;-44
2022/10/10 00:22:47;;;;;;;3.35;2.30;;;;;;;16.26;74.66;101408.69;5051178;28;20448;-45
2022/10/10 00:25:14;;;;;;;4.55;2.67;;;;;;;16.13;74.94;101406.19;5051081;28;20025;-44
2022/10/10 00:27:40;;;;;;;4.90;2.42;;;;;;;16.13;74.80;101408.88;5051158;28;20025;-45
2022/10/10 00:30:08;;;;;;;4.22;2.17;;;;;;;16.09;74.95;101417.44;5050757;28;20119;-47
2022/10/10 00:32:35;;;;;;;5.20;2.25;;;;;;;16.16;75.41;101411.13;5050985;28;20477;-48
2022/10/10 00:35:02;;;;;;;4.50;2.72;;;;;;;16.07;75.40;101418.72;5051048;28;20025;-47
2022/10/10 00:37:28;;;;;;;4.38;2.70;;;;;;;16.07;75.25;101403.34;5051236;28;20207;-44
2022/10/10 00:39:54;;;;;;;3.92;2.55;;;;;;;15.98;75.48;101410.09;5050351;28;20033;-44
2022/10/10 00:42:20;;;;;;;4.32;2.55;;;;;;;16.00;75.67;101405.31;5031311;28;20112;-46
2022/10/10 00:45:18;;;;;;;6.50;2.88;;;;;;;15.97;75.95;101408.47;5030923;28;20037;-44
2022/10/10 00:47:45;;;;;;;4.03;2.65;;;;;;;15.86;76.25;101411.94;5030371;28;20056;-45
2022/10/10 00:50:11;;;;;;;4.10;2.67;;;;;;;15.81;76.94;101406.38;5011363;28;20065;-44
2022/10/10 00:52:38;;;;;;;4.50;2.22;;;;;;;15.94;76.07;101405.41;5011407;28;20100;-48
2022/10/10 00:55:05;;;;;;;9.27;2.85;;;;;;;15.93;75.91;101406.44;5011317;28;20076;-46
2022/10/10 00:57:31;;;;;;;7.75;2.65;;;;;;;15.86;75.93;101401.13;5014958;28;20049;-44
2022/10/10 00:59:59;;;;;;;3.88;2.22;;;;;;;15.83;76.03;101407.81;5034840;28;20025;-48
2022/10/10 01:02:25;;;;;;;3.28;2.75;;;;;;;15.76;76.01;101411.63;5034474;28;20063;-46
2022/10/10 01:04:52;;;;;;;3.70;2.30;;;;;;;15.62;76.53;101404.75;5034587;28;20049;-45
2022/10/10 01:07:28;;;;;;;3.63;2.55;;;;;;;15.40;77.69;101410.56;5034782;28;20104;-47
2022/10/10 01:09:57;;;;;;;8.18;3.40;;;;;;;15.50;77.82;101412.75;5033896;28;20022;-48
2022/10/10 01:12:44;;;;;;;4.78;2.92;;;;;;;15.65;77.27;101409.69;5034400;28;20025;-46
2022/10/10 01:15:15;;;;;;;6.80;2.92;;;;;;;15.34;78.00;101411.47;5034173;28;20029;-46
2022/10/10 01:18:17;;;;;;;4.22;2.78;;;;;;;15.44;77.52;101409.09;5034977;28;20040;-47
2022/10/10 01:20:58;;;;;;;4.32;2.92;;;;;;;15.29;78.16;101412.13;5031068;28;20041;-49
2022/10/10 01:23:55;;;;;;;4.50;2.55;;;;;;;15.26;78.70;101417.16;5034230;28;20034;-46
2022/10/10 01:26:24;;;;;;;4.30;2.80;;;;;;;15.27;78.26;101414.25;5033982;28;20505;-44
2022/10/10 01:29:03;;;;;;;6.05;2.70;;;;;;;15.19;78.35;101408.31;5033694;28;20207;-46
2022/10/10 01:31:33;;;;;;;4.13;2.38;;;;;;;15.15;78.77;101415.19;5033856;28;20042;-45
2022/10/10 01:34:31;;;;;;;4.72;2.95;;;;;;;15.00;79.95;101424.44;5034134;28;20467;-43
2022/10/10 01:37:27;;;;;;;3.25;2.60;;;;;;;15.11;79.83;101424.78;5012485;28;20426;-45
2022/10/10 01:40:16;;;;;;;5.07;2.53;;;;;;;14.96;80.52;101425.09;5013907;28;20022;-46
2022/10/10 01:42:49;;;;;;;4.60;2.75;;;;;;;15.09;80.12;101418.75;5013988;28;20038;-43
2022/10/10 01:45:16;;;;;;;3.72;3.28;;;;;;;15.16;79.68;101417.69;5014202;28;20029;-43
2022/10/10 01:47:42;;;;;;;3.78;2.88;;;;;;;15.02;80.17;101422.34;5051199;28;20168;-45
2022/10/10 01:50:15;;;;;;;4.80;3.45;;;;;;;15.08;79.83;101422.50;5013736;28;20049;-46
2022/10/10 01:53:14;;;;;;;5.43;3.28;;;;;;;15.13;79.70;101422.69;5014031;28;20022;-43
2022/10/10 01:55:51;;;;;;;4.82;3.03;;;;;;;15.05;80.29;101430.00;5013895;28;20025;-44
2022/10/10 01:58:38;;;;;;;4.38;3.45;;;;;;;15.04;80.30;101435.59;5013540;28;20036;-43
2022/10/10 02:01:04;;;;;;;6.30;3.78;;;;;;;15.03;80.37;101434.78;5015585;28;20343;-46
2022/10/10 02:03:37;;;;;;;7.03;3.63;;;;;;;14.92;80.72;101443.59;5053724;28;20036;-45
2022/10/10 02:06:21;;;;;;;6.35;3.40;;;;;;;14.83;81.47;101447.63;5053614;28;20358;-46
2022/10/10 02:08:53;;;;;;;6.75;3.67;;;;;;;14.74;81.88;101447.03;5052489;28;20025;-43
2022/10/10 02:11:20;;;;;;;5.22;3.33;;;;;;;14.68;82.01;101458.69;5053099;28;20025;-46
2022/10/10 02:13:57;;;;;;;4.22;3.50;;;;;;;14.78;81.78;101458.22;5046800;28;20033;-43
2022/10/10 02:16:34;;;;;;;6.28;3.80;;;;;;;14.83;81.74;101457.56;5033155;28;20029;-44
2022/10/10 02:19:02;;;;;;;6.88;3.85;;;;;;;14.86;82.05;101460.63;5033135;28;20026;-45
2022/10/10 02:21:29;;;;;;;6.38;4.22;;;;;;;14.91;81.89;101452.72;5033133;28;20029;-45
2022/10/10 02:24:01;;;;;;;5.50;3.85;;;;;;;14.95;81.71;101455.81;5033914;28;20091;-44
2022/10/10 02:26:30;;;;;;;5.57;3.88;;;;;;;15.03;81.36;101459.03;5032714;28;20109;-44
2022/10/10 02:29:09;;;;;;;5.72;4.40;;;;;;;14.79;81.93;101460.69;5032810;28;20027;-45
2022/10/10 02:31:41;;;;;;;7.45;4.88;;;;;;;14.94;81.72;101465.78;5032956;28;20041;-46
2022/10/10 02:34:16;;;;;;;5.28;4.07;;;;;;;14.89;81.68;101464.78;5033256;28;20036;-46
2022/10/10 02:36:48;;;;;;;6.40;4.80;;;;;;;14.87;81.26;101466.84;5013490;28;20034;-44
2022/10/10 02:39:17;;;;;;;6.32;4.28;;;;;;;14.75;81.93;101470.25;5013366;28;20026;-43
2022/10/10 02:41:48;;;;;;;11.25;4.93;;;;;;;14.71;82.38;101468.19;5013084;28;20029;-43
2022/10/10 02:44:14;;;;;;;7.50;5.15;;;;;;;14.67;82.77;101469.69;5013024;28;20026;-46
2022/10/10 02:46:41;;;;;;;7.18;5.00;;;;;;;14.70;nan;101471.94;5012918;28;20018;-45
2022/10/10 02:49:07;;;;;;;8.98;5.13;;;;;;;14.63;83.32;101473.88;5021583;28;20378;-43
2022/10/10 02:51:34;;;;;;;6.85;4.68;;;;;;;14.68;83.44;101482.13;5012817;28;20045;-45
2022/10/10 02:54:00;;;;;;;6.10;4.32;;;;;;;14.57;83.26;101478.25;5012774;28;20018;-45
2022/10/10 02:56:26;;;;;;;7.68;4.82;;;;;;;14.58;83.41;101479.06;5012580;28;20112;-45
2022/10/10 02:58:53;;;;;;;7.13;5.03;;;;;;;14.55;83.36;101474.97;5012548;28;20025;-46
2022/10/10 03:01:19;;;;;;;7.72;4.78;;;;;;;14.55;83.73;101487.56;5012460;28;20088;-46
2022/10/10 03:03:45;;;;;;;6.68;4.70;;;;;;;14.57;83.68;101493.59;5045743;28;20021;-46
2022/10/10 03:06:11;;;;;;;5.18;4.65;;;;;;;14.60;83.63;101491.28;5052200;28;20398;-47
2022/10/10 03:08:38;;;;;;;5.60;4.57;;;;;;;14.44;84.12;101491.78;5051943;28;20465;-45
2022/10/10 03:11:05;;;;;;;7.25;4.60;;;;;;;14.47;84.05;101492.19;5051863;28;20061;-45
2022/10/10 03:13:31;;;;;;;5.93;4.43;;;;;;;14.52;83.18;101495.06;5052156;28;20033;-46
2022/10/10 03:15:57;;;;;;;7.90;4.88;;;;;;;14.52;83.30;101495.06;5036878;28;20030;-43
2022/10/10 03:18:24;;;;;;;6.70;4.80;;;;;;;14.53;83.21;101499.41;5030561;28;20489;-47
2022/10/10 03:20:53;;;;;;;8.23;4.32;;;;;;;14.55;83.12;101495.66;5032179;28;20032;-43
2022/10/10 03:23:20;;;;;;;8.38;4.50;;;;;;;14.64;82.99;101492.50;5031973;28;20120;-43
2022/10/10 03:25:46;;;;;;;7.63;4.50;;;;;;;14.62;83.12;101493.78;5032130;28;20033;-42
2022/10/10 03:28:13;;;;;;;5.63;4.38;;;;;;;14.59;83.17;101491.50;5042851;28;20025;-44
2022/10/10 03:30:40;;;;;;;8.73;4.45;;;;;;;14.61;82.94;101489.44;5051633;28;20036;-44
2022/10/10 03:33:07;;;;;;;8.35;5.05;;;;;;;14.64;82.70;101488.97;5051652;28;20025;-45
2022/10/10 03:35:35;;;;;;;7.95;6.20;;;;;;;14.63;82.26;101490.84;5051806;28;20021;-44
2022/10/10 03:38:01;;;;;;;7.20;4.60;;;;;;;14.57;82.35;101489.03;5049345;28;20075;-46
2022/10/10 03:40:28;;;;;;;7.07;5.05;;;;;;;14.46;83.23;101493.19;5051661;28;20032;-46
2022/10/10 03:42:54;;;;;;;7.25;4.55;;;;;;;14.33;83.47;101482.50;5051768;28;20166;-44
2022/10/10 03:45:20;;;;;;;8.15;5.60;;;;;;;14.37;83.46;101481.03;5051614;28;20033;-46
2022/10/10 03:47:46;;;;;;;11.90;5.43;;;;;;;14.37;83.51;101486.41;5039315;28;20064;-42
2022/10/10 03:50:13;;;;;;;9.57;5.40;;;;;;;14.41;83.11;101479.56;5031843;28;20466;-44
2022/10/10 03:52:39;;;;;;;7.88;6.00;;;;;;;14.42;83.27;101494.66;5031363;28;20124;-47
2022/10/10 03:55:05;;;;;;;11.73;7.03;;;;;;;14.35;83.72;101495.75;5032581;28;20057;-47
2022/10/10 03:57:31;;;;;;;8.18;5.68;;;;;;;14.30;83.59;101499.09;5031205;28;20022;-45
2022/10/10 03:59:58;;;;;;;9.80;6.53;;;;;;;14.28;83.91;101498.50;5031580;28;20037;-45
2022/10/10 04:02:24;;;;;;;8.60;5.82;;;;;;;14.36;83.67;101497.41;5030133;28;20393;-47
2022/10/10 04:04:50;;;;;;;9.05;5.97;;;;;;;14.27;83.84;101502.22;5031465;28;20049;-46
2022/10/10 04:07:16;;;;;;;8.93;6.07;;;;;;;14.30;83.75;101488.31;5031175;28;20033;-45
2022/10/10 04:09:42;;;;;;;7.75;5.53;;;;;;;14.34;83.68;101489.53;5031574;28;20017;-45
2022/10/10 04:12:09;;;;;;;7.10;5.45;;;;;;;14.32;83.88;101488.91;5031677;28;20033;-47
2022/10/10 04:14:35;;;;;;;8.35;5.90;;;;;;;14.45;83.31;101496.94;5038705;28;20055;-45
2022/10/10 04:17:01;;;;;;;6.88;5.60;;;;;;;14.39;83.06;101503.19;5051275;28;20075;-48
2022/10/10 04:19:27;;;;;;;8.30;5.68;;;;;;;14.28;83.28;101509.25;5051115;28;20029;-47
2022/10/10 04:21:54;;;;;;;8.30;5.93;;;;;;;14.21;83.87;101505.75;5051010;28;20060;-47
2022/10/10 04:24:20;;;;;;;9.45;6.32;;;;;;;14.35;83.33;101510.03;5051525;28;20648;-48
2022/10/10 04:26:46;;;;;;;10.85;7.32;;;;;;;14.36;82.73;101510.88;5051452;28;20039;-45
2022/10/10 04:29:12;;;;;;;8.98;7.10;;;;;;;14.39;83.37;101518.53;5050855;28;20028;-43
2022/10/10 04:31:38;;;;;;;8.65;6.85;;;;;;;14.33;83.20;101519.38;5049158;28;20506;-45
2022/10/10 04:34:05;;;;;;;9.80;7.07;;;;;;;14.38;83.14;101511.47;5035358;28;20036;-46
2022/10/10 04:36:31;;;;;;;12.45;7.00;;;;;;;14.45;82.57;101512.28;5035109;28;20075;-45
2022/10/10 04:38:58;;;;;;;13.73;7.82;;;;;;;14.49;82.51;101517.06;5034799;28;20075;-46
2022/10/10 04:41:25;;;;;;;9.35;7.00;;;;;;;14.53;82.26;101512.03;5034913;28;20029;-48
2022/10/10 04:43:51;;;;;;;9.50;7.53;;;;;;;14.63;81.94;101515.09;5034846;28;20033;-46
2022/10/10 04:46:17;;;;;;;11.68;8.55;;;;;;;14.54;82.25;101511.00;5035015;28;20021;-46
2022/10/10 04:48:43;;;;;;;11.77;8.05;;;;;;;14.58;82.18;101516.78;5033188;28;20116;-47
2022/10/10 04:51:10;;;;;;;11.73;8.40;;;;;;;14.57;82.32;101515.16;5034513;28;20030;-47
2022/10/10 04:53:36;;;;;;;13.95;9.02;;;;;;;14.58;82.20;101519.50;5034956;28;20137;-45
2022/10/10 04:56:03;;;;;;;11.85;9.23;;;;;;;14.58;82.07;101524.88;5033985;28;20028;-48
2022/10/10 04:58:29;;;;;;;9.88;8.63;;;;;;;14.58;82.39;101522.19;5034351;28;20038;-45
2022/10/10 05:00:56;;;;;;;12.18;7.55;;;;;;;14.60;82.30;101514.69;5034769;28;20426;-46
2022/10/10 05:03:23;;;;;;;12.60;7.53;;;;;;;14.49;82.48;101525.16;5034126;28;20445;-44
2022/10/10 05:05:49;;;;;;;9.98;7.65;;;;;;;14.58;82.43;101511.41;5034307;28;20048;-44
2022/10/10 05:08:16;;;;;;;10.90;7.65;;;;;;;14.63;82.19;101508.88;5034558;28;20049;-47
2022/10/10 05:10:44;;;;;;;10.02;7.72;;;;;;;14.55;82.16;101509.97;5034471;28;20029;-46
2022/10/10 05:13:12;;;;;;;8.55;7.03;;;;;;;14.59;81.93;101518.44;5035316;28;20030;-48
2022/10/10 05:15:39;;;;;;;11.93;7.28;;;;;;;14.72;81.60;101518.38;5034548;28;20036;-46
2022/10/10 05:18:06;;;;;;;12.82;6.88;;;;;;;14.61;82.10;101511.81;5033858;28;20030;-45
2022/10/10 05:20:33;;;;;;;11.98;7.55;;;;;;;14.58;82.15;101508.72;5034427;28;20417;-45
2022/10/10 05:22:59;;;;;;;13.60;8.20;;;;;;;14.51;82.44;101511.44;5035327;28;20074;-44
2022/10/10 05:25:26;;;;;;;10.55;7.53;;;;;;;14.45;82.91;101521.19;5034689;28;20025;-47
2022/10/10 05:27:52;;;;;;;10.65;6.88;;;;;;;14.48;82.81;101518.06;5034025;28;20047;-46
2022/10/10 05:30:18;;;;;;;8.60;6.05;;;;;;;14.53;82.73;101518.25;5034175;28;20021;-45
2022/10/10 05:32:44;;;;;;;9.40;6.15;;;;;;;14.45;82.76;101526.56;5034113;28;20042;-47
2022/10/10 05:35:10;;;;;;;10.88;6.32;;;;;;;14.50;82.68;101531.34;5033811;28;20029;-44
2022/10/10 05:37:37;;;;;;;9.82;6.88;;;;;;;14.49;82.38;101530.53;5033734;28;20033;-48
2022/10/10 05:40:04;;;;;;;8.65;6.10;;;;;;;14.48;82.47;101528.84;5034734;28;20036;-48
2022/10/10 05:42:30;;;;;;;7.05;6.03;;;;;;;14.48;82.49;101517.25;5032858;28;20022;-45
2022/10/10 05:44:57;;;;;;;7.07;5.72;;;;;;;14.40;83.15;101531.78;5033807;28;20351;-47
2022/10/10 05:47:24;;;;;;;10.55;7.68;;;;;;;14.48;82.86;101525.34;5025000;28;20048;-46
2022/10/10 05:49:51;;;;;;;8.65;6.18;;;;;;;14.50;82.68;101526.78;5013791;28;20022;-44
2022/10/10 05:52:17;;;;;;;8.18;6.85;;;;;;;14.50;82.75;101526.78;5029317;28;20054;-47
2022/10/10 05:54:43;;;;;;;9.02;6.72;;;;;;;14.45;82.82;101523.88;5013799;28;20145;-44
2022/10/10 05:57:09;;;;;;;10.13;6.32;;;;;;;14.53;82.77;101526.34;5013700;28;20038;-45
2022/10/10 05:59:35;;;;;;;10.75;7.00;;;;;;;14.46;82.74;101536.31;5031857;28;20024;-48
2022/10/10 06:02:02;;;;;;;10.80;6.70;;;;;;;14.48;82.85;101528.84;5053098;28;20047;-46
2022/10/10 06:04:28;;;;;;;10.23;7.05;;;;;;;14.51;82.59;101517.66;5053196;28;20067;-47
2022/10/10 06:06:54;;;;;;;10.15;6.70;;;;;;;14.46;82.76;101513.94;5053372;28;20025;-44
2022/10/10 06:09:20;;;;;;;12.18;6.47;;;;;;;14.57;82.04;101517.84;5053479;28;20111;-47
2022/10/10 06:11:46;;;;;;;8.50;5.85;;;;;;;14.58;81.88;101516.78;5053256;28;20025;-47
2022/10/10 06:14:13;;;;;;;9.95;7.22;;;;;;;14.51;81.91;101508.75;5053122;28;20614;-44
2022/10/10 06:16:41;;;;;;;10.75;7.07;;;;;;;14.56;81.95;101508.13;5049170;28;20065;-43
2022/10/10 06:19:07;;;;;;;9.77;7.70;;;;;;;14.40;82.55;101515.63;5032516;28;20382;-48
2022/10/10 06:21:33;;;;;;;9.50;6.55;;;;;;;14.34;82.81;101521.03;5033254;28;20025;-43
2022/10/10 06:24:00;;;;;;;11.15;6.45;;;;;;;14.51;82.56;101511.44;5032956;28;20022;-46
2022/10/10 06:26:26;;;;;;;9.30;7.15;;;;;;;14.48;82.48;101512.69;5033289;28;20425;-45
2022/10/10 06:28:52;;;;;;;10.75;7.72;;;;;;;14.44;82.75;101511.47;5032719;28;20303;-43
2022/10/10 06:31:18;;;;;;;10.10;7.32;;;;;;;14.43;82.73;101514.34;5032763;28;20576;-45
2022/10/10 06:33:46;;;;;;;10.00;6.22;;;;;;;14.41;83.00;101506.50;5032622;28;20072;-44
2022/10/10 06:36:14;;;;;;;7.88;6.22;;;;;;;14.43;82.84;101504.41;5032837;28;20025;-45
2022/10/10 06:38:43;;;;;;;9.77;6.75;;;;;;;14.37;82.84;101505.25;5032840;28;20034;-46
2022/10/10 06:41:09;;;;;;;8.20;6.15;;;;;;;14.44;82.92;101500.69;5032708;28;20044;-45
2022/10/10 06:43:36;;;;;;;9.60;6.03;;;;;;;14.52;82.45;101500.44;5032664;28;20029;-45
2022/10/10 06:46:03;;;;;;;9.90;6.40;;;;;;;14.52;82.13;101502.31;5032633;28;20017;-44
2022/10/10 06:48:31;;;;;;;11.23;6.28;;;;;;;14.47;82.61;101494.88;5014349;28;20120;-44
2022/10/10 06:51:05;;;;;;;8.90;6.35;;;;;;;14.44;82.38;101494.47;5012914;28;20370;-45
2022/10/10 06:53:32;;;;;;;7.95;5.75;;;;;;;14.35;82.43;101495.75;5012750;28;20526;-44
2022/10/10 06:55:59;;;;;;;7.97;6.20;;;;;;;14.36;82.59;101497.41;5030104;28;20437;-48
2022/10/10 06:58:27;;;;;;;8.02;6.00;;;;;;;14.36;82.48;101494.72;5032325;28;20505;-44
2022/10/10 07:00:56;;;;;;;8.75;7.18;;;;;;;14.36;82.68;101505.47;5032510;28;20037;-48
2022/10/10 07:03:23;;;;;;;8.85;6.30;;;;;;;14.49;82.08;101497.34;5032372;28;20040;-46
2022/10/10 07:05:54;;;;;;;7.78;6.38;;;;;;;14.36;82.60;101498.22;5033045;28;20116;-46
2022/10/10 07:08:22;;;;;;;6.80;5.65;;;;;;;14.43;81.91;101495.50;5032018;28;20025;-44
2022/10/10 07:10:48;;;;;;;7.55;5.78;;;;;;;14.42;82.02;101491.97;5032262;28;20108;-46
2022/10/10 07:13:15;;;;;;;7.95;5.22;;;;;;;14.18;83.28;101490.03;5032281;28;20470;-47
2022/10/10 07:15:42;;;;;;;10.45;6.65;;;;;;;14.02;83.84;101491.34;5031922;28;20059;-45
2022/10/10 07:18:08;;;;;;;6.95;5.75;;;;;;;14.14;83.96;101488.81;5031822;28;20025;-44
2022/10/10 07:20:35;;;;;;;14.65;5.90;;;;;;;14.25;83.44;101491.66;5032814;28;20026;-44
2022/10/10 07:23:03;;;;;;;6.43;4.47;;;;;;;14.23;83.66;101484.84;5032194;28;20041;-44
2022/10/10 07:25:29;;;;;;;6.55;4.75;;;;;;;14.30;83.47;101485.63;5032042;28;20095;-44
2022/10/10 07:27:55;;;;;;;7.82;5.95;;;;;;;14.39;83.19;101481.66;5031562;28;20101;-43
2022/10/10 07:30:23;;;;;;;8.65;7.00;;;;;;;14.41;82.76;101479.56;5031687;28;20350;-44
2022/10/10 07:32:51;;;;;;;8.68;7.70;;;;;;;14.45;82.53;101478.09;5031953;28;20474;-44
2022/10/10 07:35:17;;;;;;;10.70;7.47;;;;;;;14.48;82.46;101480.38;5031916;28;20035;-43
2022/10/10 07:37:44;;;;;;;9.25;6.93;;;;;;;14.47;82.22;101467.13;5031699;28;20029;-46
2022/10/10 07:40:10;;;;;;;8.85;6.13;;;;;;;14.48;82.30;101476.84;5031708;28;20026;-43
2022/10/10 07:42:36;;;;;;;8.52;5.43;;;;;;;14.42;82.58;101481.19;5050345;28;20032;-44
2022/10/10 07:45:04;;;;;;;6.43;5.25;;;;;;;14.46;82.53;101479.72;5051683;28;20047;-44
2022/10/10 07:47:30;;;;;;;7.88;5.38;;;;;;;14.34;82.89;101480.66;5031946;28;20068;-47
2022/10/10 07:49:56;;;;;;;6.63;4.95;;;;;;;14.32;83.14;101477.31;5011841;28;20022;-43
2022/10/10 07:52:22;;;;;;;7.38;4.72;;;;;;;14.21;83.36;101482.38;5012092;28;20033;-45
2022/10/10 07:54:49;;;;;;;7.25;4.82;;;;;;;14.21;83.78;101478.81;5012267;28;20030;-44
2022/10/10 07:57:15;;;;;;;7.43;5.40;;;;;;;14.29;83.54;101469.69;5012148;28;20030;-45
2022/10/10 07:59:44;;;;;;;7.57;5.25;;;;;;;14.38;83.29;101474.63;5026924;28;20409;-44
2022/10/10 08:02:10;;;;;;;7.10;4.85;;;;;;;14.27;83.78;101470.72;5031208;28;20059;-44
2022/10/10 08:04:37;;;;;;;5.70;3.95;;;;;;;14.21;84.05;101478.81;5031711;28;20104;-45
2022/10/10 08:07:03;;;;;;;7.75;4.78;;;;;;;14.21;84.04;101479.69;5033747;28;20105;-45
2022/10/10 08:09:29;;;;;;;6.65;5.15;;;;;;;14.26;83.39;101476.31;5034509;28;20441;-45
2022/10/10 08:11:55;;;;;;;6.10;4.25;;;;;;;14.15;83.63;101472.44;5035543;28;20029;-44
2022/10/10 08:14:21;;;;;;;7.13;5.07;;;;;;;14.12;84.02;101478.25;5035524;28;20530;-45
2022/10/10 08:16:47;;;;;;;6.72;5.28;;;;;;;14.06;84.16;101480.97;5035545;28;20029;-44
2022/10/10 08:19:14;;;;;;;9.18;5.28;;;;;;;14.08;84.14;101474.31;5036260;28;20025;-46
2022/10/10 08:21:40;;;;;;;6.50;5.10;;;;;;;14.06;84.11;101478.28;5035403;28;20025;-44
2022/10/10 08:24:06;;;;;;;5.57;4.68;;;;;;;13.96;84.50;101482.25;5035494;28;20025;-45
2022/10/10 08:26:32;;;;;;;4.93;4.22;;;;;;;14.08;84.04;101477.03;5035309;28;20070;-45
2022/10/10 08:28:58;;;;;;;7.57;5.22;;;;;;;14.05;83.95;101479.31;5034909;28;20090;-44
2022/10/10 08:31:25;;;;;;;6.05;4.80;;;;;;;13.99;84.25;101481.84;5035034;28;20052;-44
2022/10/10 08:33:51;;;;;;;6.55;4.50;;;;;;;14.00;84.54;101483.47;5035480;28;20067;-46
2022/10/10 08:36:20;;;;;;;6.47;4.57;;;;;;;14.02;84.84;101479.75;5035084;28;20021;-44
2022/10/10 08:38:47;;;;;;;9.13;5.35;;;;;;;14.10;84.60;101484.88;5034917;28;20087;-45
2022/10/10 08:41:32;;;;;;;7.93;5.97;;;;;;;13.97;85.36;101477.69;5035965;28;20037;-46
2022/10/10 08:44:03;;;;;;;8.47;6.93;;;;;;;13.94;85.00;101472.75;5034609;28;20025;-45
2022/10/10 08:47:03;;;;;;;10.50;6.95;;;;;;;13.93;85.08;101479.97;5033218;28;20401;-46
2022/10/10 08:49:40;;;;;;;8.23;6.63;;;;;;;14.03;84.90;101478.69;5015058;28;20470;-44
2022/10/10 08:52:30;;;;;;;9.93;7.47;;;;;;;14.03;84.43;101478.69;5015287;28;20061;-44
2022/10/10 08:55:00;;;;;;;7.78;6.32;;;;;;;14.16;84.07;101478.66;5015612;28;20030;-46
2022/10/10 08:57:40;;;;;;;9.30;5.57;;;;;;;14.02;84.51;101471.66;5014446;28;20041;-45
2022/10/10 09:00:11;;;;;;;7.15;5.18;;;;;;;14.08;84.63;101481.59;5014961;28;20529;-44
2022/10/10 09:02:47;;;;;;;8.00;5.53;;;;;;;14.13;84.25;101481.78;5015020;28;20034;-44
2022/10/10 09:05:18;;;;;;;5.60;4.45;;;;;;;13.94;84.81;101481.66;5015064;28;20463;-44
2022/10/10 09:07:59;;;;;;;8.35;4.75;;;;;;;14.07;84.57;101480.75;5045537;28;20028;-46
2022/10/10 09:10:54;;;;;;;6.35;5.18;;;;;;;14.19;83.57;101487.13;5054388;28;20075;-45
2022/10/10 09:13:35;;;;;;;8.77;5.63;;;;;;;14.17;83.59;101483.81;5054195;28;20104;-45
2022/10/10 09:16:16;;;;;;;9.13;5.72;;;;;;;14.22;83.48;101486.72;5054406;28;20036;-44
2022/10/10 09:19:23;;;;;;;8.65;5.68;;;;;;;14.33;83.39;101489.78;5053881;28;20025;-44
2022/10/10 09:21:54;;;;;;;8.13;5.63;;;;;;;14.20;83.33;101479.88;5054204;28;20390;-44
2022/10/10 09:24:31;;;;;;;7.22;5.88;;;;;;;14.15;83.51;101487.75;5054348;28;20056;-44
2022/10/10 09:27:08;;;;;;;5.55;4.95;;;;;;;14.10;83.76;101482.19;5053748;28;20043;-47
2022/10/10 09:29:53;;;;;;;8.13;5.18;;;;;;;14.05;84.23;101487.38;5051959;28;20032;-44
2022/10/10 09:32:31;;;;;;;7.63;5.47;;;;;;;13.94;84.82;101481.66;5033957;28;20045;-43
2022/10/10 09:35:20;;;;;;;7.93;5.60;;;;;;;13.98;84.77;101480.16;5034105;28;20283;-45
2022/10/10 09:37:49;;;;;;;6.32;4.93;;;;;;;14.05;84.54;101484.69;5030716;28;20042;-46
2022/10/10 09:40:29;;;;;;;7.60;4.97;;;;;;;13.97;84.54;101483.91;5034067;28;20018;-47
2022/10/10 09:42:55;;;;;;;7.45;4.75;;;;;;;13.88;84.94;101481.63;5033804;28;20498;-44
2022/10/10 09:45:36;;;;;;;7.00;4.88;;;;;;;13.93;84.89;101479.97;5033801;28;20037;-44
2022/10/10 09:48:02;;;;;;;8.52;5.07;;;;;;;14.11;84.40;101489.25;5019176;28;20026;-44
2022/10/10 09:50:29;;;;;;;7.93;5.53;;;;;;;14.07;84.67;101485.31;5014117;28;20093;-44
2022/10/10 09:52:57;;;;;;;7.88;5.10;;;;;;;14.06;84.47;101479.09;5044785;28;20504;-45
2022/10/10 09:55:29;;;;;;;6.55;4.35;;;;;;;14.06;84.15;101481.81;5053532;28;20064;-47
2022/10/10 09:58:08;;;;;;;7.38;4.70;;;;;;;13.95;84.48;101480.59;5053060;28;20025;-47
2022/10/10 10:00:36;;;;;;;8.27;5.40;;;;;;;14.00;84.45;101483.47;5053710;28;20107;-46
2022/10/10 10:03:08;;;;;;;7.93;5.78;;;;;;;14.07;84.37;101479.94;5044068;28;20037;-45
2022/10/10 10:05:34;;;;;;;7.20;5.03;;;;;;;14.00;84.20;101471.88;5033571;28;20551;-45
2022/10/10 10:08:01;;;;;;;7.30;5.68;;;;;;;13.98;84.46;101477.47;5032955;28;20555;-47
2022/10/10 10:10:29;;;;;;;8.43;5.88;;;;;;;14.11;84.23;101476.59;5033241;28;20018;-44
2022/10/10 10:12:56;;;;;;;8.35;6.13;;;;;;;14.02;84.48;101474.38;5034229;28;20048;-44
2022/10/10 10:15:28;;;;;;;7.88;5.90;;;;;;;13.96;84.70;101482.25;5033338;28;20025;-44
2022/10/10 10:18:36;;;;;;;7.35;5.60;;;;;;;13.81;85.45;101476.28;5032893;28;20036;-46
2022/10/10 10:21:02;;;;;;;9.05;6.25;;;;;;;13.94;84.92;101470.06;5011152;28;20033;-44
2022/10/10 10:23:34;;;;;;;8.65;6.38;;;;;;;13.82;85.53;101472.56;5029480;28;20107;-46
2022/10/10 10:26:03;;;;;;;12.23;8.63;;;;;;;13.88;85.28;101470.88;5033023;28;20025;-47
2022/10/10 10:28:29;;;;;;;13.05;9.15;;;;;;;13.83;85.66;101476.09;5035922;28;20513;-47
2022/10/10 10:30:57;;;;;;;8.38;7.40;;;;;;;13.83;85.96;101474.22;5052660;28;20041;-46
2022/10/10 10:33:36;;;;;;;10.93;6.78;;;;;;;13.80;86.45;101474.63;5051601;28;20473;-46
2022/10/10 10:36:20;;;;;;;9.52;6.20;;;;;;;13.81;86.78;101478.97;5052789;28;20032;-47
2022/10/10 10:39:13;;;;;;;8.80;7.25;;;;;;;13.90;86.21;101474.19;5052291;28;20025;-45
2022/10/10 10:42:18;;;;;;;10.32;7.57;;;;;;;13.96;85.36;101466.09;5040333;28;20060;-46
2022/10/10 10:45:15;;;;;;;6.65;5.75;;;;;;;13.91;85.59;101470.47;5053058;28;20021;-45
2022/10/10 10:48:12;;;;;;;6.63;4.93;;;;;;;13.80;85.89;101460.38;5029652;28;20033;-44
2022/10/10 10:50:51;;;;;;;6.82;5.28;;;;;;;13.95;85.27;101458.25;5013111;28;20490;-44
2022/10/10 10:53:44;;;;;;;6.72;5.50;;;;;;;13.98;84.65;101464.00;5012850;28;20057;-46
2022/10/10 10:56:36;;;;;;;9.57;6.25;;;;;;;13.97;84.71;101462.34;5028854;28;20067;-44
2022/10/10 10:59:02;;;;;;;6.95;4.82;;;;;;;13.89;85.09;101470.69;5052712;28;20029;-46
2022/10/10 11:01:39;;;;;;;6.05;5.03;;;;;;;13.62;86.02;101463.72;5052363;28;20035;-45
2022/10/10 11:04:18;;;;;;;4.93;4.13;;;;;;;13.63;85.71;101460.00;5051813;28;20033;-47
2022/10/10 11:07:03;;;;;;;5.22;3.70;;;;;;;13.71;85.73;101462.44;5052126;28;20071;-43
2022/10/10 11:09:38;;;;;;;4.07;3.65;;;;;;;13.68;85.41;101462.88;5052081;28;20025;-44
2022/10/10 11:12:17;;;;;;;4.32;3.70;;;;;;;13.57;85.70;101458.97;5050292;28;20059;-44
2022/10/10 11:15:11;;;;;;;4.55;3.55;;;;;;;13.53;85.95;101462.28;5032238;28;20033;-44
2022/10/10 11:17:56;;;;;;;4.88;3.80;;;;;;;13.53;86.07;101454.22;5010838;28;20029;-45
2022/10/10 11:20:25;;;;;;;5.43;3.70;;;;;;;13.55;86.24;101454.81;5032745;28;20359;-46
2022/10/10 11:22:58;;;;;;;4.82;3.83;;;;;;;13.63;85.63;101451.94;5031682;28;20992;-44
2022/10/10 11:25:51;;;;;;;5.45;4.28;;;;;;;13.69;85.19;101456.47;5032143;28;20022;-45
2022/10/10 11:28:29;;;;;;;4.90;4.15;;;;;;;13.60;85.60;101455.88;5037918;28;20052;-47
2022/10/10 11:31:09;;;;;;;6.45;4.60;;;;;;;13.44;86.54;101457.16;5051895;28;20033;-44
2022/10/10 11:33:44;;;;;;;5.47;4.72;;;;;;;13.52;86.69;101447.19;5051921;28;20025;-44
2022/10/10 11:36:30;;;;;;;6.03;4.38;;;;;;;13.55;86.60;101457.53;5051695;28;20032;-46
2022/10/10 11:39:19;;;;;;;6.78;4.47;;;;;;;13.52;87.00;101458.78;5051686;28;20040;-45
2022/10/10 11:42:22;;;;;;;4.85;4.22;;;;;;;13.44;87.34;101451.78;5050843;28;20478;-44